createdAt,value
2019-01-16T00:01:40.175Z,2.89
2019-01-16T00:04:07.988Z,2.85
2019-01-16T00:06:38.551Z,2.82
2019-01-16T00:09:19.793Z,2.77
2019-01-16T00:12:05.528Z,2.76
2019-01-16T00:14:48.651Z,2.82
2019-01-16T00:17:25.539Z,2.91
2019-01-16T00:20:05.414Z,2.83
2019-01-16T00:22:42.340Z,2.89
2019-01-16T00:25:10.141Z,2.88
2019-01-16T00:27:54.910Z,2.92
2019-01-16T00:30:25.726Z,2.90
2019-01-16T00:33:05.458Z,3.04
2019-01-16T00:35:51.366Z,3.02
2019-01-16T00:38:34.228Z,3.04
2019-01-16T00:41:02.027Z,3.05
2019-01-16T00:43:32.515Z,3.14
2019-01-16T00:46:03.299Z,3.19
2019-01-16T00:48:40.266Z,3.02
2019-01-16T00:51:24.974Z,3.16
2019-01-16T00:53:55.489Z,3.04
2019-01-16T00:56:23.280Z,2.97
2019-01-16T00:59:00.461Z,2.85
2019-01-16T01:01:28.367Z,2.82
2019-01-16T01:04:01.919Z,2.72
2019-01-16T01:06:32.484Z,2.80
2019-01-16T01:09:03.012Z,2.68
2019-01-16T01:11:39.686Z,2.64
2019-01-16T01:14:14.102Z,2.63
2019-01-16T01:16:41.902Z,2.61
2019-01-16T01:19:24.995Z,2.71
2019-01-16T01:22:07.817Z,2.72
2019-01-16T01:24:41.375Z,2.73
2019-01-16T01:27:15.134Z,2.73
2019-01-16T01:29:42.889Z,2.81
2019-01-16T01:32:10.682Z,2.62
2019-01-16T01:34:55.339Z,2.63
2019-01-16T01:37:40.051Z,2.45
2019-01-16T01:40:24.857Z,2.43
2019-01-16T01:43:10.715Z,2.53
2019-01-16T01:45:44.367Z,2.63
2019-01-16T01:48:17.912Z,2.59
2019-01-16T01:50:51.532Z,2.53
2019-01-16T01:53:31.363Z,2.72
2019-01-16T01:56:05.003Z,2.55
2019-01-16T01:58:32.769Z,2.49
2019-01-16T02:01:06.304Z,2.45
2019-01-16T02:03:51.038Z,2.41
2019-01-16T02:06:24.771Z,2.42
2019-01-16T02:09:07.615Z,2.43
2019-01-16T02:11:35.458Z,2.32
2019-01-16T02:14:06.237Z,2.29
2019-01-16T02:16:52.639Z,2.44
2019-01-16T02:19:37.332Z,2.29
2019-01-16T02:22:17.215Z,2.29
2019-01-16T02:24:53.930Z,2.30
2019-01-16T02:27:21.722Z,2.31
2019-01-16T02:29:49.527Z,2.26
2019-01-16T02:32:17.310Z,2.20
2019-01-16T02:34:45.189Z,2.22
2019-01-16T02:37:15.936Z,2.26
2019-01-16T02:39:52.533Z,2.26
2019-01-16T02:42:23.024Z,2.37
2019-01-16T02:44:53.538Z,2.51
2019-01-16T02:47:21.318Z,2.56
2019-01-16T02:49:55.097Z,2.46
2019-01-16T02:52:39.762Z,2.39
2019-01-16T02:55:13.313Z,2.57
2019-01-16T02:57:53.245Z,2.50
2019-01-16T03:00:36.150Z,2.29
2019-01-16T03:03:12.914Z,2.32
2019-01-16T03:05:49.938Z,2.42
2019-01-16T03:08:27.061Z,2.30
2019-01-16T03:11:11.499Z,2.18
2019-01-16T03:13:54.618Z,2.11
2019-01-16T03:16:28.356Z,2.15
2019-01-16T03:19:05.952Z,1.99
2019-01-16T03:21:46.000Z,1.99
2019-01-16T03:24:13.796Z,1.86
2019-01-16T03:26:41.553Z,1.93
2019-01-16T03:29:12.278Z,1.90
2019-01-16T03:31:46.161Z,1.98
2019-01-16T03:34:30.561Z,2.14
2019-01-16T03:36:58.686Z,2.06
2019-01-16T03:39:44.799Z,2.10
2019-01-16T03:42:12.595Z,2.08
2019-01-16T03:44:43.373Z,2.15
2019-01-16T03:47:11.161Z,2.01
2019-01-16T03:49:41.670Z,2.08
2019-01-16T03:52:27.847Z,2.02
2019-01-16T03:55:04.629Z,1.93
2019-01-16T03:57:32.440Z,1.96
2019-01-16T04:00:06.282Z,1.77
2019-01-16T04:02:34.084Z,1.71
2019-01-16T04:05:18.578Z,1.77
2019-01-16T04:07:49.123Z,1.88
2019-01-16T04:10:22.906Z,1.62
2019-01-16T04:12:53.391Z,1.53
2019-01-16T04:15:33.195Z,1.39
2019-01-16T04:18:16.077Z,1.80
2019-01-16T04:20:44.569Z,1.79
2019-01-16T04:23:21.308Z,1.86
2019-01-16T04:26:05.878Z,1.60
2019-01-16T04:28:39.774Z,1.49
2019-01-16T04:31:16.813Z,1.62
2019-01-16T04:33:50.855Z,1.66
2019-01-16T04:36:36.599Z,1.51
2019-01-16T04:39:23.532Z,1.44
2019-01-16T04:41:54.062Z,1.33
2019-01-16T04:44:38.637Z,1.45
2019-01-16T04:47:15.226Z,1.39
2019-01-16T04:49:42.971Z,1.31
2019-01-16T04:52:25.832Z,1.32
2019-01-16T04:54:59.644Z,1.46
2019-01-16T04:57:27.458Z,1.57
2019-01-16T05:00:04.494Z,1.47
2019-01-16T05:02:32.358Z,1.69
2019-01-16T05:05:03.302Z,1.69
2019-01-16T05:07:37.230Z,1.50
2019-01-16T05:10:20.341Z,1.60
2019-01-16T05:12:57.098Z,1.68
2019-01-16T05:15:28.063Z,1.70
2019-01-16T05:18:02.048Z,1.75
2019-01-16T05:20:46.479Z,1.83
2019-01-16T05:23:15.054Z,1.70
2019-01-16T05:25:48.880Z,1.73
2019-01-16T05:28:28.633Z,1.80
2019-01-16T05:31:02.256Z,1.62
2019-01-16T05:33:30.026Z,1.57
2019-01-16T05:36:06.845Z,1.44
2019-01-16T05:38:46.897Z,1.66
2019-01-16T05:41:14.787Z,1.71
2019-01-16T05:43:59.353Z,1.61
2019-01-16T05:46:30.140Z,1.75
2019-01-16T05:49:14.902Z,1.90
2019-01-16T05:51:45.647Z,1.74
2019-01-16T05:54:13.433Z,1.81
2019-01-16T05:56:53.509Z,1.99
2019-01-16T05:59:21.308Z,2.19
2019-01-16T06:01:57.967Z,1.83
2019-01-16T06:04:28.967Z,1.70
2019-01-16T06:07:11.814Z,1.72
2019-01-16T06:09:39.608Z,2.02
2019-01-16T06:12:16.618Z,1.87
2019-01-16T06:14:47.486Z,1.72
2019-01-16T06:17:30.323Z,1.74
2019-01-16T06:20:01.374Z,1.71
2019-01-16T06:22:46.112Z,1.87
2019-01-16T06:25:20.294Z,1.99
2019-01-16T06:28:05.001Z,1.65
2019-01-16T06:30:38.880Z,1.40
2019-01-16T06:33:24.722Z,1.66
2019-01-16T06:35:58.515Z,1.59
2019-01-16T06:38:44.804Z,1.61
2019-01-16T06:41:18.317Z,2.05
2019-01-16T06:44:04.444Z,2.19
2019-01-16T06:46:38.307Z,2.31
2019-01-16T06:49:09.059Z,2.40
2019-01-16T06:51:42.601Z,2.05
2019-01-16T06:54:13.363Z,2.04
2019-01-16T06:56:44.039Z,2.28
2019-01-16T06:59:14.540Z,2.53
2019-01-16T07:01:54.209Z,2.55
2019-01-16T07:04:25.480Z,2.56
2019-01-16T07:07:09.894Z,2.61
2019-01-16T07:09:38.092Z,2.43
2019-01-16T07:12:05.904Z,2.53
2019-01-16T07:14:33.684Z,2.54
2019-01-16T07:17:10.539Z,2.53
2019-01-16T07:19:41.039Z,2.45
2019-01-16T07:22:25.321Z,2.61
2019-01-16T07:24:58.886Z,2.55
2019-01-16T07:27:44.344Z,2.77
2019-01-16T07:30:22.503Z,2.71
2019-01-16T07:32:59.647Z,2.75
2019-01-16T07:35:39.499Z,2.96
2019-01-16T07:38:07.293Z,3.16
2019-01-16T07:40:38.031Z,3.16
2019-01-16T07:43:11.666Z,3.33
2019-01-16T07:45:42.162Z,3.49
2019-01-16T07:48:12.697Z,3.30
2019-01-16T07:50:49.273Z,3.42
2019-01-16T07:53:17.065Z,3.46
2019-01-16T07:55:44.875Z,3.54
2019-01-16T07:58:27.894Z,3.53
2019-01-16T08:01:04.669Z,3.57
2019-01-16T08:03:49.312Z,3.68
2019-01-16T08:06:30.034Z,3.66
2019-01-16T08:09:15.935Z,3.79
2019-01-16T08:11:58.810Z,3.89
2019-01-16T08:14:26.622Z,4.09
2019-01-16T08:16:54.419Z,4.09
2019-01-16T08:19:37.430Z,4.18
2019-01-16T08:22:05.237Z,4.19
2019-01-16T08:24:49.566Z,4.17
2019-01-16T08:27:23.315Z,4.23
2019-01-16T08:29:51.608Z,4.42
2019-01-16T08:32:19.421Z,4.42
2019-01-16T08:34:56.477Z,4.42
2019-01-16T08:37:40.836Z,4.62
2019-01-16T08:40:10.306Z,4.62
2019-01-16T08:42:54.579Z,4.63
2019-01-16T08:45:39.187Z,4.73
2019-01-16T08:48:22.027Z,4.73
2019-01-16T08:50:55.859Z,4.84
2019-01-16T08:53:29.480Z,4.91
2019-01-16T08:56:00.460Z,5.01
2019-01-16T08:58:40.339Z,5.15
2019-01-16T09:01:32.387Z,5.19
2019-01-16T09:03:57.257Z,5.28
2019-01-16T09:06:25.140Z,5.34
2019-01-16T09:08:55.906Z,5.31
2019-01-16T09:11:38.722Z,5.35
2019-01-16T09:14:12.794Z,5.47
2019-01-16T09:16:46.105Z,5.54
2019-01-16T09:19:25.885Z,5.72
2019-01-16T09:21:53.686Z,5.72
2019-01-16T09:24:39.744Z,5.45
2019-01-16T09:27:10.493Z,5.45
2019-01-16T09:29:41.379Z,5.73
2019-01-16T09:32:09.436Z,5.78
2019-01-16T09:34:40.158Z,5.87
2019-01-16T09:37:07.948Z,5.95
2019-01-16T09:39:50.834Z,6.13
2019-01-16T09:42:18.629Z,6.19
2019-01-16T09:44:49.427Z,6.21
2019-01-16T09:47:29.169Z,6.39
2019-01-16T09:49:57.043Z,6.56
2019-01-16T09:52:40.204Z,6.75
2019-01-16T09:55:19.985Z,6.85
2019-01-16T09:57:50.535Z,6.96
2019-01-16T10:00:18.392Z,7.07
2019-01-16T10:02:46.186Z,7.23
2019-01-16T10:05:20.236Z,7.24
2019-01-16T10:07:48.105Z,7.39
2019-01-16T10:10:18.866Z,7.46
2019-01-16T10:12:50.013Z,7.34
2019-01-16T10:15:34.291Z,7.65
2019-01-16T10:18:11.005Z,7.36
2019-01-16T10:20:45.857Z,7.71
2019-01-16T10:23:14.617Z,7.69
2019-01-16T10:25:57.406Z,7.74
2019-01-16T10:28:28.377Z,7.77
2019-01-16T10:31:12.812Z,8.10
2019-01-16T10:33:41.244Z,8.08
2019-01-16T10:36:09.037Z,7.93
2019-01-16T10:38:39.648Z,8.12
2019-01-16T10:41:23.900Z,7.85
2019-01-16T10:43:51.709Z,7.80
2019-01-16T10:46:19.482Z,7.58
2019-01-16T10:48:50.276Z,7.69
2019-01-16T10:51:34.917Z,7.61
2019-01-16T10:54:14.572Z,7.74
2019-01-16T10:56:51.182Z,7.67
2019-01-16T10:59:18.956Z,7.86
2019-01-16T11:01:49.517Z,7.77
2019-01-16T11:04:29.138Z,7.78
2019-01-16T11:06:59.877Z,7.77
2019-01-16T11:09:30.682Z,7.90
2019-01-16T11:12:14.972Z,8.02
2019-01-16T11:14:55.141Z,8.13
2019-01-16T11:17:38.032Z,8.18
2019-01-16T11:20:15.762Z,8.14
2019-01-16T11:23:00.153Z,8.31
2019-01-16T11:25:43.349Z,8.43
2019-01-16T11:28:11.148Z,8.59
2019-01-16T11:30:38.929Z,8.95
2019-01-16T11:33:06.743Z,8.87
2019-01-16T11:35:47.846Z,8.85
2019-01-16T11:38:18.354Z,9.06
2019-01-16T11:40:46.117Z,9.15
2019-01-16T11:43:14.008Z,9.11
2019-01-16T11:45:47.990Z,9.29
2019-01-16T11:48:21.551Z,9.43
2019-01-16T11:50:51.884Z,9.62
2019-01-16T11:53:19.627Z,9.53
2019-01-16T11:55:59.497Z,9.60
2019-01-16T11:58:30.280Z,9.76
2019-01-16T12:01:00.813Z,9.54
2019-01-16T12:03:45.281Z,9.68
2019-01-16T12:06:13.180Z,9.59
2019-01-16T12:08:43.608Z,9.75
2019-01-16T12:11:14.369Z,9.86
2019-01-16T12:13:59.087Z,9.99
2019-01-16T12:16:33.122Z,10.27
2019-01-16T12:19:03.608Z,10.06
2019-01-16T12:21:48.156Z,9.73
2019-01-16T12:24:32.622Z,9.67
2019-01-16T12:27:00.397Z,9.63
2019-01-16T12:29:43.489Z,9.55
2019-01-16T12:32:11.275Z,9.50
2019-01-16T12:34:51.370Z,9.41
2019-01-16T12:37:25.421Z,9.56
2019-01-16T12:39:59.503Z,9.54
2019-01-16T12:42:36.232Z,10.09
2019-01-16T12:45:05.846Z,10.18
2019-01-16T12:47:33.651Z,9.96
2019-01-16T12:50:18.573Z,9.86
2019-01-16T12:53:01.562Z,10.29
2019-01-16T12:55:35.425Z,9.75
2019-01-16T12:58:13.340Z,9.95
2019-01-16T13:00:51.280Z,10.11
2019-01-16T13:03:21.977Z,10.35
2019-01-16T13:05:58.734Z,10.50
2019-01-16T13:08:26.500Z,10.24
2019-01-16T13:10:54.289Z,10.23
2019-01-16T13:13:40.466Z,10.27
2019-01-16T13:16:17.073Z,10.29
2019-01-16T13:18:57.089Z,10.47
2019-01-16T13:21:27.589Z,10.65
2019-01-16T13:24:04.646Z,10.50
2019-01-16T13:26:49.385Z,10.70
2019-01-16T13:29:26.746Z,11.96
2019-01-16T13:32:11.168Z,12.68
2019-01-16T13:34:55.785Z,12.60
2019-01-16T13:37:26.633Z,12.06
2019-01-16T13:39:55.236Z,11.83
2019-01-16T13:42:29.280Z,12.60
2019-01-16T13:45:06.349Z,12.48
2019-01-16T13:47:40.328Z,12.29
2019-01-16T13:50:28.334Z,12.25
2019-01-16T13:52:59.919Z,12.78
2019-01-16T13:55:30.821Z,12.52
2019-01-16T13:58:01.575Z,13.20
2019-01-16T14:00:35.386Z,12.43
2019-01-16T14:03:05.917Z,12.47
2019-01-16T14:05:46.004Z,12.28
2019-01-16T14:08:16.528Z,12.45
2019-01-16T14:10:47.050Z,12.57
2019-01-16T14:13:20.835Z,12.67
2019-01-16T14:15:54.428Z,12.81
2019-01-16T14:18:31.097Z,12.81
2019-01-16T14:20:59.059Z,12.87
2019-01-16T14:23:26.871Z,13.09
2019-01-16T14:25:54.628Z,13.12
2019-01-16T14:28:25.258Z,13.17
2019-01-16T14:30:55.847Z,13.17
2019-01-16T14:33:32.860Z,13.18
2019-01-16T14:36:17.330Z,13.21
2019-01-16T14:38:54.135Z,13.25
2019-01-16T14:41:38.005Z,13.22
2019-01-16T14:44:14.871Z,13.37
2019-01-16T14:46:48.900Z,13.35
2019-01-16T14:49:16.715Z,13.44
2019-01-16T14:51:44.612Z,13.33
2019-01-16T14:54:12.371Z,13.26
2019-01-16T14:56:42.899Z,13.29
2019-01-16T14:59:13.424Z,13.34
2019-01-16T15:01:51.961Z,13.35
2019-01-16T15:04:37.811Z,13.14
2019-01-16T15:07:15.307Z,12.98
2019-01-16T15:09:49.181Z,13.06
2019-01-16T15:12:22.997Z,13.02
2019-01-16T15:14:50.808Z,12.99
2019-01-16T15:17:30.558Z,12.95
2019-01-16T15:20:04.151Z,12.97
2019-01-16T15:22:34.664Z,12.92
2019-01-16T15:25:05.012Z,12.81
2019-01-16T15:27:42.022Z,12.79
2019-01-16T15:30:13.509Z,12.72
2019-01-16T15:32:41.288Z,12.63
2019-01-16T15:35:19.215Z,12.53
2019-01-16T15:37:47.003Z,12.53
2019-01-16T15:40:24.032Z,12.49
2019-01-16T15:43:07.500Z,12.47
2019-01-16T15:45:44.442Z,12.41
2019-01-16T15:48:21.132Z,12.32
2019-01-16T15:51:05.778Z,12.32
2019-01-16T15:53:33.571Z,12.32
2019-01-16T15:56:19.534Z,12.21
2019-01-16T15:58:50.254Z,12.16
2019-01-16T16:01:18.265Z,12.05
2019-01-16T16:03:46.040Z,12.02
2019-01-16T16:06:16.850Z,11.81
2019-01-16T16:08:56.962Z,11.66
2019-01-16T16:11:41.478Z,11.60
2019-01-16T16:14:18.149Z,11.53
2019-01-16T16:16:48.678Z,11.40
2019-01-16T16:19:28.829Z,11.36
2019-01-16T16:21:56.611Z,11.44
2019-01-16T16:24:24.378Z,11.41
2019-01-16T16:27:08.777Z,11.26
2019-01-16T16:29:39.634Z,11.16
2019-01-16T16:32:07.418Z,10.99
2019-01-16T16:34:35.246Z,11.13
2019-01-16T16:37:03.091Z,11.16
2019-01-16T16:39:30.844Z,10.94
2019-01-16T16:42:15.312Z,11.07
2019-01-16T16:44:44.276Z,10.90
2019-01-16T16:47:18.113Z,10.97
2019-01-16T16:49:48.861Z,10.79
2019-01-16T16:52:16.654Z,10.45
2019-01-16T16:54:56.498Z,10.38
2019-01-16T16:57:40.920Z,10.45
2019-01-16T17:00:15.009Z,10.35
2019-01-16T17:02:51.613Z,10.41
2019-01-16T17:05:19.493Z,10.48
2019-01-16T17:07:47.258Z,10.33
2019-01-16T17:10:15.045Z,10.27
2019-01-16T17:12:59.473Z,10.16
2019-01-16T17:15:33.338Z,10.09
2019-01-16T17:18:16.911Z,10.03
2019-01-16T17:20:44.740Z,9.89
2019-01-16T17:23:21.573Z,9.73
2019-01-16T17:25:52.542Z,9.68
2019-01-16T17:28:38.232Z,9.65
2019-01-16T17:31:06.052Z,9.60
2019-01-16T17:33:33.835Z,9.40
2019-01-16T17:36:01.587Z,9.30
2019-01-16T17:38:29.458Z,9.09
2019-01-16T17:41:11.999Z,8.93
2019-01-16T17:43:56.453Z,8.94
2019-01-16T17:46:28.269Z,8.82
2019-01-16T17:49:01.947Z,8.82
2019-01-16T17:51:29.740Z,8.84
2019-01-16T17:54:14.624Z,8.75
2019-01-16T17:56:45.402Z,8.68
2019-01-16T17:59:29.713Z,8.79
2019-01-16T18:02:00.247Z,8.63
2019-01-16T18:04:28.047Z,8.62
2019-01-16T18:06:58.353Z,8.65
2019-01-16T18:09:32.248Z,8.62
2019-01-16T18:12:12.026Z,8.63
2019-01-16T18:14:39.804Z,8.73
2019-01-16T18:17:13.804Z,8.67
2019-01-16T18:19:44.688Z,8.59
2019-01-16T18:22:12.519Z,8.56
2019-01-16T18:24:53.238Z,8.65
2019-01-16T18:27:35.813Z,8.67
2019-01-16T18:30:12.606Z,8.64
2019-01-16T18:32:40.504Z,8.73
2019-01-16T18:35:16.135Z,8.66
2019-01-16T18:37:46.767Z,8.72
2019-01-16T18:40:29.772Z,8.61
2019-01-16T18:43:14.382Z,8.66
2019-01-16T18:45:48.398Z,8.55
2019-01-16T18:48:17.083Z,8.56
2019-01-16T18:50:47.708Z,8.56
2019-01-16T18:53:15.499Z,8.59
2019-01-16T18:55:49.302Z,8.53
2019-01-16T18:58:19.958Z,8.81
2019-01-16T19:00:50.470Z,8.98
2019-01-16T19:03:24.091Z,8.97
2019-01-16T19:06:00.776Z,8.99
2019-01-16T19:08:45.356Z,8.94
2019-01-16T19:11:28.152Z,8.99
2019-01-16T19:14:14.169Z,9.03
2019-01-16T19:16:41.959Z,9.05
2019-01-16T19:19:24.866Z,9.15
2019-01-16T19:21:58.420Z,9.15
2019-01-16T19:24:33.735Z,8.98
2019-01-16T19:27:01.566Z,8.95
2019-01-16T19:29:38.361Z,9.06
2019-01-16T19:32:08.975Z,9.09
2019-01-16T19:34:39.784Z,9.04
2019-01-16T19:37:13.357Z,9.14
2019-01-16T19:39:58.213Z,9.03
2019-01-16T19:42:26.012Z,9.11
2019-01-16T19:45:08.805Z,9.12
2019-01-16T19:47:53.530Z,9.11
2019-01-16T19:50:24.810Z,9.14
2019-01-16T19:53:09.308Z,9.25
2019-01-16T19:55:53.923Z,9.22
2019-01-16T19:58:21.971Z,9.43
2019-01-16T20:00:55.682Z,9.26
2019-01-16T20:03:32.507Z,9.38
2019-01-16T20:06:00.417Z,9.65
2019-01-16T20:08:46.210Z,10.11
2019-01-16T20:11:22.895Z,9.97
2019-01-16T20:13:51.009Z,10.02
2019-01-16T20:16:24.203Z,10.29
2019-01-16T20:19:01.223Z,10.07
2019-01-16T20:21:29.156Z,10.19
2019-01-16T20:23:56.936Z,10.28
2019-01-16T20:26:41.552Z,10.37
2019-01-16T20:29:12.287Z,10.44
2019-01-16T20:31:45.838Z,10.37
2019-01-16T20:34:16.615Z,10.58
2019-01-16T20:36:44.445Z,10.50
2019-01-16T20:39:28.285Z,10.39
2019-01-16T20:41:56.136Z,10.43
2019-01-16T20:44:40.772Z,10.63
2019-01-16T20:47:13.466Z,10.44
2019-01-16T20:49:53.596Z,10.48
2019-01-16T20:52:28.246Z,10.30
2019-01-16T20:55:14.225Z,10.21
2019-01-16T20:57:59.488Z,12.04
2019-01-16T21:00:29.786Z,15.81
2019-01-16T21:02:57.589Z,15.03
2019-01-16T21:05:25.389Z,14.46
2019-01-16T21:07:53.186Z,10.84
2019-01-16T21:10:20.970Z,10.36
2019-01-16T21:13:04.167Z,10.29
2019-01-16T21:15:39.598Z,10.28
2019-01-16T21:18:07.368Z,10.35
2019-01-16T21:20:41.222Z,10.20
2019-01-16T21:23:24.023Z,10.34
2019-01-16T21:25:57.659Z,10.33
2019-01-16T21:28:32.622Z,10.45
2019-01-16T21:31:06.236Z,10.50
2019-01-16T21:33:37.068Z,10.54
2019-01-16T21:36:13.925Z,10.51
2019-01-16T21:38:58.370Z,10.44
2019-01-16T21:41:32.122Z,10.39
2019-01-16T21:44:02.451Z,10.30
2019-01-16T21:46:30.246Z,10.25
2019-01-16T21:49:01.064Z,10.22
2019-01-16T21:51:40.737Z,10.15
2019-01-16T21:54:09.310Z,10.15
2019-01-16T21:56:37.099Z,9.70
2019-01-16T21:59:10.678Z,9.53
2019-01-16T22:01:41.432Z,9.45
2019-01-16T22:04:09.231Z,9.36
2019-01-16T22:06:37.202Z,9.36
2019-01-16T22:09:16.134Z,9.38
2019-01-16T22:11:50.195Z,9.32
2019-01-16T22:14:30.107Z,9.24
2019-01-16T22:16:57.878Z,9.27
2019-01-16T22:19:28.713Z,9.32
2019-01-16T22:22:11.542Z,9.39
2019-01-16T22:24:54.395Z,9.49
2019-01-16T22:27:24.958Z,9.57
2019-01-16T22:29:55.752Z,9.61
2019-01-16T22:32:26.123Z,9.68
2019-01-16T22:34:53.902Z,9.65
2019-01-16T22:38:51.116Z,9.66
2019-01-16T22:41:35.516Z,9.62
2019-01-16T22:44:03.295Z,9.65
2019-01-16T22:46:31.057Z,9.61
2019-01-16T22:49:07.814Z,9.58
2019-01-16T22:51:41.400Z,9.50
2019-01-16T22:54:09.270Z,9.50
2019-01-16T22:56:46.661Z,9.44
2019-01-16T22:59:20.784Z,9.46
2019-01-16T23:02:06.721Z,9.45
2019-01-16T23:04:43.423Z,9.51
2019-01-16T23:07:13.973Z,9.49
2019-01-16T23:09:41.840Z,9.48
2019-01-16T23:12:26.143Z,9.42
2019-01-16T23:14:53.919Z,9.31
2019-01-16T23:17:21.690Z,9.52
2019-01-16T23:19:49.505Z,9.56
2019-01-16T23:22:32.606Z,9.57
2019-01-16T23:25:03.220Z,9.51
2019-01-16T23:27:47.523Z,9.62
2019-01-16T23:30:28.241Z,9.70
2019-01-16T23:33:11.070Z,9.78
2019-01-16T23:35:53.971Z,9.52
2019-01-16T23:38:31.160Z,9.44
2019-01-16T23:41:07.818Z,9.44
2019-01-16T23:43:52.460Z,9.35
2019-01-16T23:46:32.610Z,9.33
2019-01-16T23:49:17.409Z,9.26
2019-01-16T23:51:45.184Z,9.32
2019-01-16T23:54:29.680Z,9.30
2019-01-16T23:56:58.323Z,9.26
2019-01-16T23:59:35.019Z,9.56
